sensor_id;sensor_type;location;lat;lon;timestamp;pressure;altitude;pressure_sealevel;temperature;humidity
41467;BME280;27205;53.690;19.948;2023-02-19T00:03:21;99124.46;;;2.24;81.16
41467;BME280;27205;53.690;19.948;2023-02-19T00:08:25;99120.70;;;2.18;81.39
41467;BME280;27205;53.690;19.948;2023-02-19T00:13:29;99124.56;;;2.13;81.48
41467;BME280;27205;53.690;19.948;2023-02-19T00:18:33;99123.70;;;2.09;81.57
41467;BME280;27205;53.690;19.948;2023-02-19T00:23:37;99126.14;;;2.05;81.49
41467;BME280;27205;53.690;19.948;2023-02-19T00:28:41;99133.15;;;2.01;81.58
41467;BME280;27205;53.690;19.948;2023-02-19T00:33:45;99130.61;;;1.97;81.68
41467;BME280;27205;53.690;19.948;2023-02-19T00:38:50;99133.33;;;1.95;81.80
41467;BME280;27205;53.690;19.948;2023-02-19T00:43:59;99125.40;;;1.91;81.90
41467;BME280;27205;53.690;19.948;2023-02-19T00:49:04;99127.62;;;1.86;81.95
41467;BME280;27205;53.690;19.948;2023-02-19T00:54:09;99123.22;;;1.83;81.85
41467;BME280;27205;53.690;19.948;2023-02-19T00:59:14;99130.73;;;1.78;81.93
41467;BME280;27205;53.690;19.948;2023-02-19T01:04:18;99140.06;;;1.74;81.96
41467;BME280;27205;53.690;19.948;2023-02-19T01:09:21;99146.46;;;1.69;81.85
41467;BME280;27205;53.690;19.948;2023-02-19T01:14:25;99150.15;;;1.68;82.34
41467;BME280;27205;53.690;19.948;2023-02-19T01:19:29;99142.04;;;1.67;82.29
41467;BME280;27205;53.690;19.948;2023-02-19T01:24:32;99147.73;;;1.68;82.41
41467;BME280;27205;53.690;19.948;2023-02-19T01:29:36;99146.23;;;1.67;82.51
41467;BME280;27205;53.690;19.948;2023-02-19T01:34:40;99142.29;;;1.66;82.42
41467;BME280;27205;53.690;19.948;2023-02-19T01:39:44;99141.10;;;1.67;82.64
41467;BME280;27205;53.690;19.948;2023-02-19T01:49:53;99136.58;;;1.68;82.73
41467;BME280;27205;53.690;19.948;2023-02-19T01:55:00;99129.02;;;1.73;82.93
41467;BME280;27205;53.690;19.948;2023-02-19T02:00:08;99133.85;;;1.75;83.09
41467;BME280;27205;53.690;19.948;2023-02-19T02:05:20;99140.35;;;1.78;83.33
41467;BME280;27205;53.690;19.948;2023-02-19T02:10:27;99135.95;;;1.82;83.39
41467;BME280;27205;53.690;19.948;2023-02-19T02:15:39;99136.42;;;1.88;83.65
41467;BME280;27205;53.690;19.948;2023-02-19T02:31:44;99129.66;;;2.22;83.50
41467;BME280;27205;53.690;19.948;2023-02-19T02:37:00;99139.13;;;2.32;83.44
41467;BME280;27205;53.690;19.948;2023-02-19T02:42:05;99145.54;;;2.41;83.48
41467;BME280;27205;53.690;19.948;2023-02-19T02:47:32;99152.77;;;2.51;83.48
41467;BME280;27205;53.690;19.948;2023-02-19T02:52:49;99148.44;;;2.60;83.52
41467;BME280;27205;53.690;19.948;2023-02-19T02:58:13;99143.73;;;2.67;83.54
41467;BME280;27205;53.690;19.948;2023-02-19T03:03:21;99133.59;;;2.71;83.65
41467;BME280;27205;53.690;19.948;2023-02-19T03:08:32;99138.48;;;2.75;83.63
41467;BME280;27205;53.690;19.948;2023-02-19T03:13:39;99138.11;;;2.79;83.64
41467;BME280;27205;53.690;19.948;2023-02-19T03:19:03;99130.63;;;2.81;83.74
41467;BME280;27205;53.690;19.948;2023-02-19T03:24:29;99130.51;;;2.84;83.63
41467;BME280;27205;53.690;19.948;2023-02-19T03:29:53;99129.61;;;2.86;83.59
41467;BME280;27205;53.690;19.948;2023-02-19T03:35:04;99127.84;;;2.85;83.55
41467;BME280;27205;53.690;19.948;2023-02-19T03:40:10;99127.05;;;2.86;83.60
41467;BME280;27205;53.690;19.948;2023-02-19T03:50:27;99130.46;;;2.97;83.40
41467;BME280;27205;53.690;19.948;2023-02-19T04:00:56;99129.06;;;3.00;83.43
41467;BME280;27205;53.690;19.948;2023-02-19T04:06:04;99124.30;;;2.98;83.58
41467;BME280;27205;53.690;19.948;2023-02-19T04:11:10;99121.13;;;3.00;83.61
41467;BME280;27205;53.690;19.948;2023-02-19T04:16:19;99121.67;;;3.02;83.69
41467;BME280;27205;53.690;19.948;2023-02-19T04:21:25;99118.74;;;3.01;83.74
41467;BME280;27205;53.690;19.948;2023-02-19T04:26:32;99117.65;;;3.04;83.83
41467;BME280;27205;53.690;19.948;2023-02-19T04:31:36;99115.95;;;3.03;83.77
41467;BME280;27205;53.690;19.948;2023-02-19T04:36:40;99115.49;;;3.06;83.63
41467;BME280;27205;53.690;19.948;2023-02-19T04:41:44;99110.71;;;3.02;83.60
41467;BME280;27205;53.690;19.948;2023-02-19T04:46:48;99112.38;;;2.97;83.65
41467;BME280;27205;53.690;19.948;2023-02-19T04:51:51;99108.49;;;2.92;83.61
41467;BME280;27205;53.690;19.948;2023-02-19T04:56:55;99105.44;;;2.90;83.37
41467;BME280;27205;53.690;19.948;2023-02-19T05:01:59;99104.11;;;2.86;83.51
41467;BME280;27205;53.690;19.948;2023-02-19T05:07:03;99097.62;;;2.80;83.60
41467;BME280;27205;53.690;19.948;2023-02-19T05:12:06;99095.58;;;2.74;83.63
41467;BME280;27205;53.690;19.948;2023-02-19T05:17:10;99093.95;;;2.74;83.60
41467;BME280;27205;53.690;19.948;2023-02-19T05:22:13;99094.23;;;2.72;83.58
41467;BME280;27205;53.690;19.948;2023-02-19T05:27:17;99094.77;;;2.70;83.56
41467;BME280;27205;53.690;19.948;2023-02-19T05:32:20;99091.07;;;2.69;83.69
41467;BME280;27205;53.690;19.948;2023-02-19T05:37:24;99097.35;;;2.72;83.52
41467;BME280;27205;53.690;19.948;2023-02-19T05:42:28;99100.41;;;2.71;83.59
41467;BME280;27205;53.690;19.948;2023-02-19T05:47:31;99104.30;;;2.71;83.42
41467;BME280;27205;53.690;19.948;2023-02-19T05:52:35;99106.60;;;2.67;83.61
41467;BME280;27205;53.690;19.948;2023-02-19T05:57:42;99109.96;;;2.66;83.62
41467;BME280;27205;53.690;19.948;2023-02-19T06:02:46;99110.70;;;2.67;83.64
41467;BME280;27205;53.690;19.948;2023-02-19T06:07:49;99117.49;;;2.69;83.64
41467;BME280;27205;53.690;19.948;2023-02-19T06:12:53;99118.30;;;2.72;83.65
41467;BME280;27205;53.690;19.948;2023-02-19T06:17:57;99121.67;;;2.76;83.66
41467;BME280;27205;53.690;19.948;2023-02-19T06:23:00;99124.86;;;2.81;83.88
41467;BME280;27205;53.690;19.948;2023-02-19T06:28:04;99136.44;;;2.86;83.88
41467;BME280;27205;53.690;19.948;2023-02-19T06:33:08;99140.23;;;2.91;84.01
41467;BME280;27205;53.690;19.948;2023-02-19T06:38:11;99144.08;;;2.99;83.85
41467;BME280;27205;53.690;19.948;2023-02-19T06:43:15;99141.16;;;3.07;83.80
41467;BME280;27205;53.690;19.948;2023-02-19T06:48:18;99152.23;;;3.14;83.91
41467;BME280;27205;53.690;19.948;2023-02-19T06:53:22;99158.35;;;3.19;83.77
41467;BME280;27205;53.690;19.948;2023-02-19T06:58:26;99162.32;;;3.25;83.84
41467;BME280;27205;53.690;19.948;2023-02-19T07:03:30;99168.27;;;3.34;83.86
41467;BME280;27205;53.690;19.948;2023-02-19T07:08:33;99166.11;;;3.40;83.66
41467;BME280;27205;53.690;19.948;2023-02-19T07:13:36;99173.84;;;3.44;83.74
41467;BME280;27205;53.690;19.948;2023-02-19T07:18:40;99179.32;;;3.49;83.84
41467;BME280;27205;53.690;19.948;2023-02-19T07:23:44;99188.89;;;3.56;83.70
41467;BME280;27205;53.690;19.948;2023-02-19T07:28:49;99193.98;;;3.60;83.59
41467;BME280;27205;53.690;19.948;2023-02-19T07:33:54;99199.58;;;3.67;83.65
41467;BME280;27205;53.690;19.948;2023-02-19T07:38:58;99203.57;;;3.75;83.58
41467;BME280;27205;53.690;19.948;2023-02-19T07:44:02;99211.82;;;3.85;83.55
41467;BME280;27205;53.690;19.948;2023-02-19T07:49:06;99217.98;;;3.87;83.23
41467;BME280;27205;53.690;19.948;2023-02-19T07:54:09;99220.61;;;3.85;83.39
41467;BME280;27205;53.690;19.948;2023-02-19T07:59:16;99224.34;;;3.92;83.24
41467;BME280;27205;53.690;19.948;2023-02-19T08:04:21;99226.83;;;4.05;83.03
41467;BME280;27205;53.690;19.948;2023-02-19T08:09:25;99231.58;;;4.23;83.02
41467;BME280;27205;53.690;19.948;2023-02-19T08:14:29;99236.55;;;4.44;82.55
41467;BME280;27205;53.690;19.948;2023-02-19T08:19:32;99249.17;;;4.71;82.38
41467;BME280;27205;53.690;19.948;2023-02-19T08:24:37;99257.61;;;4.90;81.86
41467;BME280;27205;53.690;19.948;2023-02-19T08:29:45;99256.83;;;4.93;81.64
41467;BME280;27205;53.690;19.948;2023-02-19T08:34:48;99254.45;;;4.98;81.61
41467;BME280;27205;53.690;19.948;2023-02-19T08:39:52;99258.20;;;4.93;81.15
41467;BME280;27205;53.690;19.948;2023-02-19T08:44:56;99270.55;;;4.91;80.80
41467;BME280;27205;53.690;19.948;2023-02-19T08:49:59;99270.15;;;4.71;80.20
41467;BME280;27205;53.690;19.948;2023-02-19T08:55:04;99281.77;;;4.54;80.31
41467;BME280;27205;53.690;19.948;2023-02-19T09:00:09;99290.23;;;4.46;80.44
41467;BME280;27205;53.690;19.948;2023-02-19T09:05:13;99291.27;;;4.58;80.39
41467;BME280;27205;53.690;19.948;2023-02-19T09:10:17;99291.63;;;4.71;80.45
41467;BME280;27205;53.690;19.948;2023-02-19T09:15:20;99299.67;;;4.77;80.39
41467;BME280;27205;53.690;19.948;2023-02-19T09:20:24;99298.77;;;4.90;80.37
41467;BME280;27205;53.690;19.948;2023-02-19T09:25:28;99299.94;;;5.11;80.08
41467;BME280;27205;53.690;19.948;2023-02-19T09:30:31;99302.75;;;5.32;79.63
41467;BME280;27205;53.690;19.948;2023-02-19T09:35:38;99310.42;;;5.57;79.33
41467;BME280;27205;53.690;19.948;2023-02-19T09:40:41;99319.58;;;5.74;78.68
41467;BME280;27205;53.690;19.948;2023-02-19T09:45:46;99318.98;;;5.83;77.35
41467;BME280;27205;53.690;19.948;2023-02-19T09:50:50;99325.12;;;5.82;76.47
41467;BME280;27205;53.690;19.948;2023-02-19T09:55:54;99328.81;;;5.73;75.75
41467;BME280;27205;53.690;19.948;2023-02-19T10:01:01;99329.87;;;5.63;75.70
41467;BME280;27205;53.690;19.948;2023-02-19T10:06:26;99335.58;;;5.66;75.44
41467;BME280;27205;53.690;19.948;2023-02-19T10:11:32;99340.59;;;5.68;75.01
41467;BME280;27205;53.690;19.948;2023-02-19T10:16:39;99342.27;;;5.72;74.59
41467;BME280;27205;53.690;19.948;2023-02-19T10:21:45;99352.91;;;5.86;74.04
41467;BME280;27205;53.690;19.948;2023-02-19T10:26:49;99349.80;;;5.95;73.29
41467;BME280;27205;53.690;19.948;2023-02-19T10:32:14;99358.80;;;6.15;73.32
41467;BME280;27205;53.690;19.948;2023-02-19T10:37:20;99360.24;;;6.07;71.56
41467;BME280;27205;53.690;19.948;2023-02-19T10:42:23;99356.90;;;5.95;71.23
41467;BME280;27205;53.690;19.948;2023-02-19T10:47:28;99359.09;;;5.93;71.01
41467;BME280;27205;53.690;19.948;2023-02-19T10:52:33;99367.16;;;6.04;69.90
41467;BME280;27205;53.690;19.948;2023-02-19T10:57:38;99364.73;;;6.30;69.71
41467;BME280;27205;53.690;19.948;2023-02-19T11:02:43;99362.77;;;6.55;69.40
41467;BME280;27205;53.690;19.948;2023-02-19T11:07:54;99367.08;;;6.66;67.38
41467;BME280;27205;53.690;19.948;2023-02-19T11:13:01;99362.38;;;6.80;66.74
41467;BME280;27205;53.690;19.948;2023-02-19T11:28:35;99395.29;;;6.46;61.04
41467;BME280;27205;53.690;19.948;2023-02-19T12:32:46;99435.91;;;7.29;51.23
41467;BME280;27205;53.690;19.948;2023-02-19T12:38:10;99438.52;;;7.28;51.57
41467;BME280;27205;53.690;19.948;2023-02-19T12:43:23;99443.27;;;7.15;51.69
41467;BME280;27205;53.690;19.948;2023-02-19T12:53:57;99450.52;;;7.07;49.37
41467;BME280;27205;53.690;19.948;2023-02-19T12:59:21;99447.70;;;7.13;49.37
41467;BME280;27205;53.690;19.948;2023-02-19T13:09:50;99464.52;;;7.15;50.06
41467;BME280;27205;53.690;19.948;2023-02-19T13:15:04;99467.81;;;7.21;50.33
41467;BME280;27205;53.690;19.948;2023-02-19T13:31:01;99479.67;;;7.34;49.31
41467;BME280;27205;53.690;19.948;2023-02-19T13:36:14;99477.10;;;7.54;48.01
41467;BME280;27205;53.690;19.948;2023-02-19T13:41:25;99473.52;;;7.50;47.30
41467;BME280;27205;53.690;19.948;2023-02-19T13:46:41;99475.88;;;7.12;47.73
41467;BME280;27205;53.690;19.948;2023-02-19T13:51:54;99484.82;;;6.77;48.20
41467;BME280;27205;53.690;19.948;2023-02-19T14:02:32;99498.55;;;6.70;49.42
41467;BME280;27205;53.690;19.948;2023-02-19T14:07:47;99504.66;;;6.40;49.56
41467;BME280;27205;53.690;19.948;2023-02-19T14:12:51;99503.22;;;6.09;49.50
41467;BME280;27205;53.690;19.948;2023-02-19T14:17:54;99505.94;;;5.92;49.85
41467;BME280;27205;53.690;19.948;2023-02-19T14:23:07;99511.92;;;5.85;50.28
41467;BME280;27205;53.690;19.948;2023-02-19T14:28:21;99516.04;;;5.85;50.63
41467;BME280;27205;53.690;19.948;2023-02-19T14:33:31;99512.80;;;5.80;50.86
41467;BME280;27205;53.690;19.948;2023-02-19T14:38:44;99519.09;;;5.87;51.03
41467;BME280;27205;53.690;19.948;2023-02-19T14:43:54;99532.44;;;6.03;51.23
41467;BME280;27205;53.690;19.948;2023-02-19T14:49:06;99539.67;;;6.10;51.15
41467;BME280;27205;53.690;19.948;2023-02-19T14:54:32;99540.50;;;5.87;51.39
41467;BME280;27205;53.690;19.948;2023-02-19T14:59:38;99548.70;;;5.66;51.05
41467;BME280;27205;53.690;19.948;2023-02-19T15:04:41;99557.83;;;5.65;50.14
41467;BME280;27205;53.690;19.948;2023-02-19T15:09:56;99560.90;;;5.75;50.50
41467;BME280;27205;53.690;19.948;2023-02-19T15:15:07;99561.05;;;5.69;50.43
41467;BME280;27205;53.690;19.948;2023-02-19T15:20:11;99567.26;;;5.72;50.39
41467;BME280;27205;53.690;19.948;2023-02-19T15:25:21;99573.35;;;6.58;50.20
41467;BME280;27205;53.690;19.948;2023-02-19T15:30:27;99579.54;;;7.63;49.79
41467;BME280;27205;53.690;19.948;2023-02-19T15:35:34;99596.45;;;7.65;48.94
41467;BME280;27205;53.690;19.948;2023-02-19T15:40:43;99601.92;;;6.80;49.77
41467;BME280;27205;53.690;19.948;2023-02-19T15:45:48;99618.38;;;6.74;49.22
41467;BME280;27205;53.690;19.948;2023-02-19T15:50:58;99620.33;;;6.07;49.39
41467;BME280;27205;53.690;19.948;2023-02-19T16:01:16;99636.76;;;5.03;49.79
41467;BME280;27205;53.690;19.948;2023-02-19T16:06:23;99637.70;;;4.65;50.22
41467;BME280;27205;53.690;19.948;2023-02-19T16:11:41;99652.38;;;4.37;50.42
41467;BME280;27205;53.690;19.948;2023-02-19T16:16:53;99651.79;;;4.09;50.73
41467;BME280;27205;53.690;19.948;2023-02-19T16:21:58;99661.73;;;3.85;50.91
41467;BME280;27205;53.690;19.948;2023-02-19T16:27:03;99676.42;;;3.66;51.08
41467;BME280;27205;53.690;19.948;2023-02-19T16:32:15;99677.63;;;3.44;51.53
41467;BME280;27205;53.690;19.948;2023-02-19T16:37:40;99685.17;;;3.29;51.85
41467;BME280;27205;53.690;19.948;2023-02-19T16:47:57;99688.83;;;3.04;52.68
41467;BME280;27205;53.690;19.948;2023-02-19T16:53:02;99681.45;;;2.94;52.98
41467;BME280;27205;53.690;19.948;2023-02-19T16:58:06;99693.92;;;2.79;53.15
41467;BME280;27205;53.690;19.948;2023-02-19T17:03:15;99704.59;;;2.65;53.24
41467;BME280;27205;53.690;19.948;2023-02-19T17:13:37;99721.45;;;2.40;53.88
41467;BME280;27205;53.690;19.948;2023-02-19T17:18:40;99733.34;;;2.35;54.11
41467;BME280;27205;53.690;19.948;2023-02-19T17:23:44;99736.85;;;2.31;54.22
41467;BME280;27205;53.690;19.948;2023-02-19T17:28:48;99737.05;;;2.32;54.19
41467;BME280;27205;53.690;19.948;2023-02-19T17:33:52;99743.77;;;2.34;53.88
41467;BME280;27205;53.690;19.948;2023-02-19T17:38:57;99738.79;;;2.31;53.90
41467;BME280;27205;53.690;19.948;2023-02-19T17:44:01;99732.20;;;2.27;53.76
41467;BME280;27205;53.690;19.948;2023-02-19T17:49:05;99736.33;;;2.23;53.67
41467;BME280;27205;53.690;19.948;2023-02-19T17:54:09;99739.72;;;2.20;53.52
41467;BME280;27205;53.690;19.948;2023-02-19T17:59:13;99743.34;;;2.17;53.45
41467;BME280;27205;53.690;19.948;2023-02-19T18:04:19;99746.54;;;2.16;53.47
41467;BME280;27205;53.690;19.948;2023-02-19T18:09:23;99752.05;;;2.12;53.61
41467;BME280;27205;53.690;19.948;2023-02-19T18:14:26;99764.36;;;2.06;53.70
41467;BME280;27205;53.690;19.948;2023-02-19T18:19:31;99765.75;;;2.02;53.79
41467;BME280;27205;53.690;19.948;2023-02-19T18:24:34;99771.33;;;2.02;54.04
41467;BME280;27205;53.690;19.948;2023-02-19T18:29:38;99777.26;;;2.05;54.27
41467;BME280;27205;53.690;19.948;2023-02-19T18:34:41;99773.35;;;2.07;54.51
41467;BME280;27205;53.690;19.948;2023-02-19T18:39:45;99768.94;;;2.06;54.99
41467;BME280;27205;53.690;19.948;2023-02-19T18:44:49;99767.02;;;2.09;55.27
41467;BME280;27205;53.690;19.948;2023-02-19T18:49:54;99775.16;;;2.09;55.58
41467;BME280;27205;53.690;19.948;2023-02-19T18:54:58;99781.15;;;2.05;55.77
41467;BME280;27205;53.690;19.948;2023-02-19T19:00:02;99791.31;;;2.00;56.03
41467;BME280;27205;53.690;19.948;2023-02-19T19:05:06;99795.10;;;1.97;56.11
41467;BME280;27205;53.690;19.948;2023-02-19T19:10:09;99791.10;;;1.94;56.46
41467;BME280;27205;53.690;19.948;2023-02-19T19:15:19;99791.24;;;2.00;56.93
41467;BME280;27205;53.690;19.948;2023-02-19T19:20:23;99779.16;;;2.03;57.15
41467;BME280;27205;53.690;19.948;2023-02-19T19:25:26;99779.61;;;2.00;57.52
41467;BME280;27205;53.690;19.948;2023-02-19T19:30:30;99770.51;;;1.93;57.94
41467;BME280;27205;53.690;19.948;2023-02-19T19:35:33;99768.12;;;1.92;58.22
41467;BME280;27205;53.690;19.948;2023-02-19T19:40:37;99770.70;;;1.95;58.38
41467;BME280;27205;53.690;19.948;2023-02-19T19:45:44;99784.74;;;1.99;58.44
41467;BME280;27205;53.690;19.948;2023-02-19T19:50:48;99774.80;;;2.07;58.58
41467;BME280;27205;53.690;19.948;2023-02-19T19:55:52;99763.86;;;2.12;58.84
41467;BME280;27205;53.690;19.948;2023-02-19T20:00:56;99759.92;;;2.11;59.01
41467;BME280;27205;53.690;19.948;2023-02-19T20:06:01;99773.19;;;2.11;59.02
41467;BME280;27205;53.690;19.948;2023-02-19T20:11:05;99768.13;;;2.07;59.36
41467;BME280;27205;53.690;19.948;2023-02-19T20:16:09;99774.05;;;2.06;59.46
41467;BME280;27205;53.690;19.948;2023-02-19T20:21:15;99786.89;;;2.13;60.20
41467;BME280;27205;53.690;19.948;2023-02-19T20:26:26;99794.48;;;2.17;60.43
41467;BME280;27205;53.690;19.948;2023-02-19T20:31:30;99801.52;;;2.23;61.00
41467;BME280;27205;53.690;19.948;2023-02-19T20:36:41;99797.05;;;2.26;61.24
41467;BME280;27205;53.690;19.948;2023-02-19T20:41:46;99798.75;;;2.26;61.55
41467;BME280;27205;53.690;19.948;2023-02-19T20:46:51;99807.77;;;2.29;62.38
41467;BME280;27205;53.690;19.948;2023-02-19T20:52:05;99803.55;;;2.34;62.97
41467;BME280;27205;53.690;19.948;2023-02-19T20:57:09;99798.22;;;2.41;63.22
41467;BME280;27205;53.690;19.948;2023-02-19T21:02:19;99799.73;;;2.44;63.34
41467;BME280;27205;53.690;19.948;2023-02-19T21:07:24;99803.10;;;2.50;63.82
41467;BME280;27205;53.690;19.948;2023-02-19T21:12:28;99796.18;;;2.53;63.86
41467;BME280;27205;53.690;19.948;2023-02-19T21:17:31;99798.06;;;2.60;63.93
41467;BME280;27205;53.690;19.948;2023-02-19T21:22:35;99792.08;;;2.60;64.85
41467;BME280;27205;53.690;19.948;2023-02-19T21:27:38;99793.55;;;2.50;65.28
41467;BME280;27205;53.690;19.948;2023-02-19T21:32:42;99799.23;;;2.41;65.55
41467;BME280;27205;53.690;19.948;2023-02-19T21:37:46;99797.59;;;2.34;65.85
41467;BME280;27205;53.690;19.948;2023-02-19T21:42:49;99792.77;;;2.30;66.62
41467;BME280;27205;53.690;19.948;2023-02-19T21:47:53;99791.48;;;2.29;66.92
41467;BME280;27205;53.690;19.948;2023-02-19T22:00:10;99775.13;;;2.23;68.36
41467;BME280;27205;53.690;19.948;2023-02-19T22:05:15;99775.31;;;2.22;69.11
41467;BME280;27205;53.690;19.948;2023-02-19T22:10:19;99783.30;;;2.22;69.49
41467;BME280;27205;53.690;19.948;2023-02-19T22:15:23;99772.48;;;2.27;69.92
41467;BME280;27205;53.690;19.948;2023-02-19T22:20:27;99765.07;;;2.29;70.11
41467;BME280;27205;53.690;19.948;2023-02-19T22:25:30;99776.15;;;2.31;70.44
41467;BME280;27205;53.690;19.948;2023-02-19T22:30:34;99789.55;;;2.31;71.26
41467;BME280;27205;53.690;19.948;2023-02-19T22:35:37;99775.31;;;2.34;71.48
41467;BME280;27205;53.690;19.948;2023-02-19T22:40:41;99765.06;;;2.33;71.91
41467;BME280;27205;53.690;19.948;2023-02-19T22:45:45;99765.73;;;2.35;72.29
41467;BME280;27205;53.690;19.948;2023-02-19T22:50:50;99766.27;;;2.35;72.82
41467;BME280;27205;53.690;19.948;2023-02-19T22:55:55;99769.42;;;2.33;72.99
41467;BME280;27205;53.690;19.948;2023-02-19T23:00:58;99763.34;;;2.30;73.68
41467;BME280;27205;53.690;19.948;2023-02-19T23:06:03;99761.02;;;2.27;73.96
41467;BME280;27205;53.690;19.948;2023-02-19T23:11:07;99758.11;;;2.24;74.20
41467;BME280;27205;53.690;19.948;2023-02-19T23:16:11;99750.02;;;2.25;74.56
41467;BME280;27205;53.690;19.948;2023-02-19T23:21:16;99741.48;;;2.24;75.32
41467;BME280;27205;53.690;19.948;2023-02-19T23:26:20;99740.45;;;2.26;75.19
41467;BME280;27205;53.690;19.948;2023-02-19T23:31:25;99733.91;;;2.26;75.39
41467;BME280;27205;53.690;19.948;2023-02-19T23:36:29;99732.35;;;2.27;75.64
41467;BME280;27205;53.690;19.948;2023-02-19T23:41:32;99741.74;;;2.28;75.85
41467;BME280;27205;53.690;19.948;2023-02-19T23:46:36;99736.89;;;2.29;76.14
41467;BME280;27205;53.690;19.948;2023-02-19T23:51:39;99736.08;;;2.27;76.94
41467;BME280;27205;53.690;19.948;2023-02-19T23:56:43;99742.30;;;2.23;77.19
